createdAt,value
2018-09-16T00:00:19.578Z,1020.59
2018-09-16T00:01:19.567Z,1020.55
2018-09-16T00:02:19.612Z,1020.57
2018-09-16T00:03:19.583Z,1020.60
2018-09-16T00:04:19.604Z,1020.55
2018-09-16T00:05:19.620Z,1020.58
2018-09-16T00:06:19.596Z,1020.55
2018-09-16T00:07:19.663Z,1020.55
2018-09-16T00:08:19.653Z,1020.53
2018-09-16T00:09:19.639Z,1020.53
2018-09-16T00:10:19.640Z,1020.51
2018-09-16T00:11:19.654Z,1020.56
2018-09-16T00:12:19.699Z,1020.54
2018-09-16T00:13:19.672Z,1020.52
2018-09-16T00:14:19.701Z,1020.57
2018-09-16T00:15:19.681Z,1020.56
2018-09-16T00:16:19.723Z,1020.56
2018-09-16T00:17:19.723Z,1020.56
2018-09-16T00:18:19.700Z,1020.54
2018-09-16T00:19:19.716Z,1020.55
2018-09-16T00:20:19.740Z,1020.52
2018-09-16T00:21:19.787Z,1020.53
2018-09-16T00:22:19.764Z,1020.50
2018-09-16T00:23:19.767Z,1020.55
2018-09-16T00:24:19.818Z,1020.55
2018-09-16T00:25:19.785Z,1020.54
2018-09-16T00:26:19.828Z,1020.54
2018-09-16T00:27:19.792Z,1020.52
2018-09-16T00:28:19.910Z,1020.55
2018-09-16T00:29:19.828Z,1020.59
2018-09-16T00:30:19.819Z,1020.54
2018-09-16T00:31:19.880Z,1020.58
2018-09-16T00:32:19.849Z,1020.57
2018-09-16T00:33:19.881Z,1020.56
2018-09-16T00:34:19.880Z,1020.61
2018-09-16T00:35:19.895Z,1020.57
2018-09-16T00:36:19.896Z,1020.59
2018-09-16T00:37:19.915Z,1020.59
2018-09-16T00:38:19.946Z,1020.66
2018-09-16T00:39:19.946Z,1020.62
2018-09-16T00:40:19.909Z,1020.62
2018-09-16T00:41:19.951Z,1020.61
2018-09-16T00:42:19.957Z,1020.59
2018-09-16T00:43:19.965Z,1020.60
2018-09-16T00:44:19.996Z,1020.60
2018-09-16T00:45:19.975Z,1020.65
2018-09-16T00:46:20.005Z,1020.63
2018-09-16T00:47:19.976Z,1020.62
2018-09-16T00:48:19.988Z,1020.60
2018-09-16T00:49:20.038Z,1020.62
2018-09-16T00:50:20.042Z,1020.62
2018-09-16T00:51:20.028Z,1020.64
2018-09-16T00:52:20.073Z,1020.64
2018-09-16T00:53:20.042Z,1020.65
2018-09-16T00:54:20.128Z,1020.64
2018-09-16T00:55:20.099Z,1020.62
2018-09-16T00:56:20.082Z,1020.60
2018-09-16T00:57:20.087Z,1020.67
2018-09-16T00:58:20.112Z,1020.65
2018-09-16T00:59:20.109Z,1020.65
2018-09-16T01:00:20.152Z,1020.65
2018-09-16T01:01:20.139Z,1020.67
2018-09-16T01:02:20.138Z,1020.66
2018-09-16T01:03:20.139Z,1020.67
2018-09-16T01:04:20.168Z,1020.64
2018-09-16T01:05:20.144Z,1020.70
2018-09-16T01:06:20.204Z,1020.70
2018-09-16T01:07:20.173Z,1020.72
2018-09-16T01:08:20.215Z,1020.74
2018-09-16T01:09:20.194Z,1020.75
2018-09-16T01:10:20.191Z,1020.80
2018-09-16T01:11:20.248Z,1020.81
2018-09-16T01:12:20.245Z,1020.78
2018-09-16T01:13:20.242Z,1020.80
2018-09-16T01:14:20.249Z,1020.80
2018-09-16T01:15:20.278Z,1020.82
2018-09-16T01:16:20.268Z,1020.79
2018-09-16T01:17:20.282Z,1020.80
2018-09-16T01:18:20.342Z,1020.78
2018-09-16T01:19:20.283Z,1020.76
2018-09-16T01:20:20.300Z,1020.79
2018-09-16T01:21:20.322Z,1020.75
2018-09-16T01:22:20.330Z,1020.78
2018-09-16T01:23:20.346Z,1020.76
2018-09-16T01:24:20.384Z,1020.73
2018-09-16T01:25:20.379Z,1020.73
2018-09-16T01:26:20.373Z,1020.70
2018-09-16T01:27:20.360Z,1020.70
2018-09-16T01:28:20.360Z,1020.71
2018-09-16T01:29:20.430Z,1020.70
2018-09-16T01:30:20.375Z,1020.70
2018-09-16T01:31:20.430Z,1020.71
2018-09-16T01:32:20.432Z,1020.72
2018-09-16T01:33:20.411Z,1020.68
2018-09-16T01:34:20.487Z,1020.68
2018-09-16T01:35:20.457Z,1020.67
2018-09-16T01:36:20.484Z,1020.68
2018-09-16T01:37:20.460Z,1020.71
2018-09-16T01:38:20.471Z,1020.70
2018-09-16T01:39:20.487Z,1020.68
2018-09-16T01:40:20.528Z,1020.69
2018-09-16T01:41:20.503Z,1020.72
2018-09-16T01:42:20.548Z,1020.68
2018-09-16T01:43:20.521Z,1020.66
2018-09-16T01:44:20.535Z,1020.67
2018-09-16T01:45:20.560Z,1020.66
2018-09-16T01:46:20.526Z,1020.66
2018-09-16T01:47:20.594Z,1020.65
2018-09-16T01:48:20.585Z,1020.66
2018-09-16T01:49:20.568Z,1020.68
2018-09-16T01:50:20.594Z,1020.68
2018-09-16T01:51:20.592Z,1020.66
2018-09-16T01:52:20.619Z,1020.67
2018-09-16T01:53:20.634Z,1020.64
2018-09-16T01:54:20.648Z,1020.66
2018-09-16T01:55:20.645Z,1020.62
2018-09-16T01:56:20.632Z,1020.64
2018-09-16T01:57:20.633Z,1020.64
2018-09-16T01:58:20.665Z,1020.62
2018-09-16T01:59:20.679Z,1020.61
2018-09-16T02:00:20.681Z,1020.64
2018-09-16T02:01:20.684Z,1020.63
2018-09-16T02:02:20.698Z,1020.64
2018-09-16T02:03:20.704Z,1020.68
2018-09-16T02:04:20.715Z,1020.64
2018-09-16T02:05:20.805Z,1020.71
2018-09-16T02:06:20.732Z,1020.67
2018-09-16T02:07:20.720Z,1020.71
2018-09-16T02:08:20.738Z,1020.69
2018-09-16T02:09:20.784Z,1020.68
2018-09-16T02:10:20.755Z,1020.75
2018-09-16T02:11:20.805Z,1020.73
2018-09-16T02:12:20.797Z,1020.75
2018-09-16T02:13:20.786Z,1020.72
2018-09-16T02:14:20.801Z,1020.69
2018-09-16T02:15:20.793Z,1020.70
2018-09-16T02:16:20.842Z,1020.64
2018-09-16T02:17:20.815Z,1020.67
2018-09-16T02:18:20.852Z,1020.66
2018-09-16T02:19:20.849Z,1020.63
2018-09-16T02:20:20.845Z,1020.64
2018-09-16T02:21:20.887Z,1020.67
2018-09-16T02:22:20.857Z,1020.65
2018-09-16T02:23:20.895Z,1020.64
2018-09-16T02:24:20.943Z,1020.63
2018-09-16T02:25:20.911Z,1020.63
2018-09-16T02:26:20.895Z,1020.61
2018-09-16T02:27:20.934Z,1020.61
2018-09-16T02:28:20.948Z,1020.59
2018-09-16T02:29:20.962Z,1020.58
2018-09-16T02:30:20.979Z,1020.59
2018-09-16T02:31:20.976Z,1020.59
2018-09-16T02:32:20.957Z,1020.58
2018-09-16T02:33:20.981Z,1020.61
2018-09-16T02:34:21.014Z,1020.59
2018-09-16T02:35:20.995Z,1020.58
2018-09-16T02:36:21.007Z,1020.63
2018-09-16T02:37:21.021Z,1020.61
2018-09-16T02:38:21.099Z,1020.65
2018-09-16T02:39:21.027Z,1020.61
2018-09-16T02:40:21.070Z,1020.65
2018-09-16T02:41:21.033Z,1020.63
2018-09-16T02:42:21.085Z,1020.59
2018-09-16T02:43:21.118Z,1020.62
2018-09-16T02:44:21.090Z,1020.61
2018-09-16T02:45:21.103Z,1020.59
2018-09-16T02:46:21.093Z,1020.55
2018-09-16T02:47:21.093Z,1020.56
2018-09-16T02:48:21.105Z,1020.55
2018-09-16T02:49:21.141Z,1020.55
2018-09-16T02:50:21.135Z,1020.54
2018-09-16T02:51:21.140Z,1020.55
2018-09-16T02:52:21.150Z,1020.57
2018-09-16T02:53:21.156Z,1020.50
2018-09-16T02:54:21.178Z,1020.54
2018-09-16T02:55:21.186Z,1020.54
2018-09-16T02:56:21.206Z,1020.53
2018-09-16T02:57:21.192Z,1020.51
2018-09-16T02:58:21.191Z,1020.52
2018-09-16T02:59:21.430Z,1020.51
2018-09-16T03:00:21.214Z,1020.50
2018-09-16T03:01:21.288Z,1020.52
2018-09-16T03:02:21.237Z,1020.49
2018-09-16T03:03:21.263Z,1020.47
2018-09-16T03:04:21.252Z,1020.46
2018-09-16T03:05:21.257Z,1020.50
2018-09-16T03:06:21.267Z,1020.51
2018-09-16T03:07:21.313Z,1020.48
2018-09-16T03:08:21.323Z,1020.51
2018-09-16T03:09:21.296Z,1020.49
2018-09-16T03:10:21.325Z,1020.46
2018-09-16T03:11:21.376Z,1020.49
2018-09-16T03:12:21.362Z,1020.45
2018-09-16T03:13:21.351Z,1020.47
2018-09-16T03:14:21.357Z,1020.47
2018-09-16T03:15:21.377Z,1020.47
2018-09-16T03:16:21.379Z,1020.45
2018-09-16T03:17:21.438Z,1020.46
2018-09-16T03:18:21.382Z,1020.42
2018-09-16T03:19:21.414Z,1020.40
2018-09-16T03:20:21.413Z,1020.43
2018-09-16T03:21:21.412Z,1020.45
2018-09-16T03:22:21.470Z,1020.43
2018-09-16T03:23:21.440Z,1020.46
2018-09-16T03:24:21.434Z,1020.46
2018-09-16T03:25:21.451Z,1020.44
2018-09-16T03:26:21.500Z,1020.46
2018-09-16T03:27:21.455Z,1020.44
2018-09-16T03:28:21.468Z,1020.44
2018-09-16T03:29:21.478Z,1020.41
2018-09-16T03:30:21.477Z,1020.43
2018-09-16T03:31:21.498Z,1020.44
2018-09-16T03:32:21.484Z,1020.43
2018-09-16T03:33:21.534Z,1020.41
2018-09-16T03:34:21.534Z,1020.41
2018-09-16T03:35:21.522Z,1020.40
2018-09-16T03:36:21.532Z,1020.42
2018-09-16T03:37:21.561Z,1020.40
2018-09-16T03:38:21.651Z,1020.40
2018-09-16T03:39:21.577Z,1020.44
2018-09-16T03:40:21.583Z,1020.44
2018-09-16T03:41:21.585Z,1020.39
2018-09-16T03:42:21.605Z,1020.42
2018-09-16T03:43:21.622Z,1020.36
2018-09-16T03:44:21.621Z,1020.37
2018-09-16T03:45:21.617Z,1020.34
2018-09-16T03:46:21.647Z,1020.36
2018-09-16T03:47:21.652Z,1020.38
2018-09-16T03:48:21.677Z,1020.33
2018-09-16T03:49:21.645Z,1020.31
2018-09-16T03:50:21.697Z,1020.33
2018-09-16T03:51:21.694Z,1020.29
2018-09-16T03:52:21.731Z,1020.28
2018-09-16T03:53:21.693Z,1020.28
2018-09-16T03:54:22.597Z,1020.26
2018-09-16T03:55:21.727Z,1020.30
2018-09-16T03:56:21.755Z,1020.21
2018-09-16T03:57:21.762Z,1020.24
2018-09-16T03:58:21.711Z,1020.24
2018-09-16T03:59:21.767Z,1020.26
2018-09-16T04:00:21.788Z,1020.25
2018-09-16T04:01:21.796Z,1020.22
2018-09-16T04:02:21.780Z,1020.23
2018-09-16T04:03:21.934Z,1020.27
2018-09-16T04:04:21.819Z,1020.24
2018-09-16T04:05:21.799Z,1020.19
2018-09-16T04:06:21.808Z,1020.23
2018-09-16T04:07:21.801Z,1020.22
2018-09-16T04:08:21.827Z,1020.20
2018-09-16T04:09:21.856Z,1020.21
2018-09-16T04:10:21.831Z,1020.19
2018-09-16T04:11:21.837Z,1020.21
2018-09-16T04:12:21.847Z,1020.23
2018-09-16T04:13:21.858Z,1020.23
2018-09-16T04:14:21.879Z,1020.25
2018-09-16T04:15:21.880Z,1020.25
2018-09-16T04:16:21.884Z,1020.22
2018-09-16T04:17:21.889Z,1020.24
2018-09-16T04:18:21.946Z,1020.25
2018-09-16T04:19:21.953Z,1020.25
2018-09-16T04:20:21.964Z,1020.23
2018-09-16T04:21:22.030Z,1020.26
2018-09-16T04:22:21.938Z,1020.26
2018-09-16T04:23:21.971Z,1020.28
2018-09-16T04:24:21.988Z,1020.27
2018-09-16T04:25:22.092Z,1020.24
2018-09-16T04:26:21.975Z,1020.27
2018-09-16T04:27:21.993Z,1020.24
2018-09-16T04:28:22.016Z,1020.25
2018-09-16T04:29:21.994Z,1020.28
2018-09-16T04:30:22.016Z,1020.26
2018-09-16T04:31:22.081Z,1020.31
2018-09-16T04:32:22.043Z,1020.33
2018-09-16T04:33:22.175Z,1020.28
2018-09-16T04:34:22.037Z,1020.31
2018-09-16T04:35:22.100Z,1020.29
2018-09-16T04:36:22.064Z,1020.31
2018-09-16T04:37:22.103Z,1020.37
2018-09-16T04:38:22.075Z,1020.35
2018-09-16T04:39:22.128Z,1020.34
2018-09-16T04:40:22.120Z,1020.34
2018-09-16T04:41:22.120Z,1020.35
2018-09-16T04:42:22.121Z,1020.32
2018-09-16T04:43:22.182Z,1020.36
2018-09-16T04:44:22.133Z,1020.35
2018-09-16T04:45:22.125Z,1020.36
2018-09-16T04:46:22.177Z,1020.36
2018-09-16T04:47:22.178Z,1020.38
2018-09-16T04:48:22.194Z,1020.35
2018-09-16T04:49:22.203Z,1020.34
2018-09-16T04:50:22.263Z,1020.38
2018-09-16T04:51:22.175Z,1020.38
2018-09-16T04:52:22.198Z,1020.41
2018-09-16T04:53:22.204Z,1020.43
2018-09-16T04:54:22.250Z,1020.44
2018-09-16T04:55:22.252Z,1020.45
2018-09-16T04:56:22.250Z,1020.45
2018-09-16T04:57:22.269Z,1020.44
2018-09-16T04:58:22.240Z,1020.42
2018-09-16T04:59:22.245Z,1020.40
2018-09-16T05:00:22.333Z,1020.41
2018-09-16T05:01:22.293Z,1020.45
2018-09-16T05:02:22.328Z,1020.42
2018-09-16T05:03:22.306Z,1020.44
2018-09-16T05:04:22.307Z,1020.42
2018-09-16T05:05:22.348Z,1020.41
2018-09-16T05:06:22.474Z,1020.44
2018-09-16T05:07:22.342Z,1020.45
2018-09-16T05:08:22.354Z,1020.47
2018-09-16T05:09:22.394Z,1020.48
2018-09-16T05:10:22.504Z,1020.48
2018-09-16T05:11:22.439Z,1020.50
2018-09-16T05:12:22.461Z,1020.49
2018-09-16T05:13:22.455Z,1020.50
2018-09-16T05:14:22.428Z,1020.51
2018-09-16T05:15:22.418Z,1020.49
2018-09-16T05:16:22.442Z,1020.55
2018-09-16T05:17:22.476Z,1020.54
2018-09-16T05:18:22.488Z,1020.53
2018-09-16T05:19:22.444Z,1020.56
2018-09-16T05:20:22.449Z,1020.58
2018-09-16T05:21:22.499Z,1020.58
2018-09-16T05:22:22.461Z,1020.63
2018-09-16T05:23:22.537Z,1020.62
2018-09-16T05:24:22.546Z,1020.64
2018-09-16T05:25:22.492Z,1020.65
2018-09-16T05:26:22.555Z,1020.65
2018-09-16T05:27:22.502Z,1020.69
2018-09-16T05:28:22.514Z,1020.67
2018-09-16T05:29:22.562Z,1020.68
2018-09-16T05:30:22.547Z,1020.71
2018-09-16T05:31:22.595Z,1020.73
2018-09-16T05:32:22.723Z,1020.73
2018-09-16T05:33:22.595Z,1020.71
2018-09-16T05:34:22.603Z,1020.74
2018-09-16T05:35:22.632Z,1020.75
2018-09-16T05:36:22.617Z,1020.75
2018-09-16T05:37:22.623Z,1020.76
2018-09-16T05:38:22.619Z,1020.80
2018-09-16T05:39:22.652Z,1020.77
2018-09-16T05:40:22.683Z,1020.81
2018-09-16T05:41:22.685Z,1020.83
2018-09-16T05:42:22.695Z,1020.80
2018-09-16T05:43:22.780Z,1020.83
2018-09-16T05:44:22.671Z,1020.80
2018-09-16T05:45:22.717Z,1020.80
2018-09-16T05:46:22.711Z,1020.85
2018-09-16T05:47:22.689Z,1020.78
2018-09-16T05:48:22.743Z,1020.83
2018-09-16T05:49:22.727Z,1020.79
2018-09-16T05:50:22.709Z,1020.77
2018-09-16T05:51:22.758Z,1020.82
2018-09-16T05:52:22.752Z,1020.82
2018-09-16T05:53:22.886Z,1020.85
2018-09-16T05:54:22.776Z,1020.84
2018-09-16T05:55:22.791Z,1020.87
2018-09-16T05:56:22.781Z,1020.88
2018-09-16T05:57:22.796Z,1020.84
2018-09-16T05:58:22.870Z,1020.83
2018-09-16T05:59:22.811Z,1020.87
2018-09-16T06:00:22.883Z,1020.85
2018-09-16T06:01:22.844Z,1020.86
2018-09-16T06:02:22.845Z,1020.90
2018-09-16T06:03:23.118Z,1020.90
2018-09-16T06:04:22.888Z,1020.85
2018-09-16T06:05:22.916Z,1020.91
2018-09-16T06:06:22.925Z,1020.88
2018-09-16T06:07:22.876Z,1020.89
2018-09-16T06:08:22.891Z,1020.87
2018-09-16T06:09:22.930Z,1020.88
2018-09-16T06:10:22.977Z,1020.91
2018-09-16T06:11:22.995Z,1020.89
2018-09-16T06:12:22.937Z,1020.91
2018-09-16T06:13:22.937Z,1020.94
2018-09-16T06:14:22.952Z,1020.92
2018-09-16T06:15:23.007Z,1020.93
2018-09-16T06:16:23.028Z,1020.95
2018-09-16T06:17:22.995Z,1020.98
2018-09-16T06:18:23.065Z,1020.99
2018-09-16T06:19:23.018Z,1020.96
2018-09-16T06:20:23.016Z,1020.99
2018-09-16T06:21:23.038Z,1020.99
2018-09-16T06:22:23.122Z,1021.02
2018-09-16T06:23:23.041Z,1021.04
2018-09-16T06:24:23.049Z,1021.04
2018-09-16T06:25:23.106Z,1021.03
2018-09-16T06:26:23.078Z,1021.04
2018-09-16T06:27:23.085Z,1021.06
2018-09-16T06:28:23.097Z,1021.02
2018-09-16T06:29:23.123Z,1021.04
2018-09-16T06:30:23.113Z,1021.04
2018-09-16T06:31:23.121Z,1021.07
2018-09-16T06:32:23.126Z,1021.08
2018-09-16T06:33:23.160Z,1021.11
2018-09-16T06:34:23.181Z,1021.12
2018-09-16T06:35:23.209Z,1021.13
2018-09-16T06:36:23.178Z,1021.14
2018-09-16T06:37:23.202Z,1021.13
2018-09-16T06:38:23.217Z,1021.13
2018-09-16T06:39:23.216Z,1021.14
2018-09-16T06:40:23.335Z,1021.13
2018-09-16T06:41:23.353Z,1021.16
2018-09-16T06:42:23.306Z,1021.15
2018-09-16T06:43:23.276Z,1021.14
2018-09-16T06:44:23.275Z,1021.13
2018-09-16T06:45:23.253Z,1021.13
2018-09-16T06:46:23.300Z,1021.15
2018-09-16T06:47:23.424Z,1021.15
2018-09-16T06:48:23.423Z,1021.15
2018-09-16T06:49:23.392Z,1021.16
2018-09-16T06:50:23.373Z,1021.17
2018-09-16T06:51:23.361Z,1021.20
2018-09-16T06:52:23.449Z,1021.20
2018-09-16T06:53:23.333Z,1021.24
2018-09-16T06:54:23.988Z,1021.24
2018-09-16T06:55:23.395Z,1021.24
2018-09-16T06:56:23.408Z,1021.29
2018-09-16T06:57:23.411Z,1021.27
2018-09-16T06:58:23.424Z,1021.23
2018-09-16T06:59:23.413Z,1021.24
2018-09-16T07:00:23.434Z,1021.24
2018-09-16T07:01:23.472Z,1021.23
2018-09-16T07:02:23.432Z,1021.25
2018-09-16T07:03:23.444Z,1021.26
2018-09-16T07:04:23.441Z,1021.28
2018-09-16T07:05:23.457Z,1021.24
2018-09-16T07:06:23.601Z,1021.29
2018-09-16T07:07:23.466Z,1021.24
2018-09-16T07:08:23.785Z,1021.28
2018-09-16T07:09:23.589Z,1021.30
2018-09-16T07:10:23.569Z,1021.28
2018-09-16T07:11:23.568Z,1021.25
2018-09-16T07:12:23.638Z,1021.25
2018-09-16T07:13:23.591Z,1021.31
2018-09-16T07:14:23.669Z,1021.25
2018-09-16T07:15:23.581Z,1021.25
2018-09-16T07:16:23.571Z,1021.23
2018-09-16T07:17:23.633Z,1021.21
2018-09-16T07:18:23.682Z,1021.19
2018-09-16T07:19:23.655Z,1021.18
2018-09-16T07:20:23.630Z,1021.15
2018-09-16T07:21:23.631Z,1021.17
2018-09-16T07:22:23.651Z,1021.17
2018-09-16T07:23:23.854Z,1021.16
2018-09-16T07:24:23.679Z,1021.13
2018-09-16T07:25:23.677Z,1021.16
2018-09-16T07:26:23.720Z,1021.16
2018-09-16T07:27:23.783Z,1021.16
2018-09-16T07:28:23.679Z,1021.14
2018-09-16T07:29:23.869Z,1021.14
2018-09-16T07:30:23.765Z,1021.18
2018-09-16T07:31:23.788Z,1021.13
2018-09-16T07:32:23.724Z,1021.15
2018-09-16T07:33:23.797Z,1021.18
2018-09-16T07:34:23.735Z,1021.19
2018-09-16T07:35:23.754Z,1021.18
2018-09-16T07:36:23.775Z,1021.20
2018-09-16T07:37:23.783Z,1021.18
2018-09-16T07:38:23.807Z,1021.20
2018-09-16T07:39:23.829Z,1021.23
2018-09-16T07:40:23.816Z,1021.25
2018-09-16T07:41:23.876Z,1021.20
2018-09-16T07:42:23.912Z,1021.26
2018-09-16T07:43:23.849Z,1021.22
2018-09-16T07:44:23.925Z,1021.22
2018-09-16T07:45:23.868Z,1021.24
2018-09-16T07:46:23.933Z,1021.21
2018-09-16T07:47:23.935Z,1021.24
2018-09-16T07:48:23.907Z,1021.24
2018-09-16T07:49:23.936Z,1021.25
2018-09-16T07:50:23.923Z,1021.25
2018-09-16T07:51:23.928Z,1021.28
2018-09-16T07:52:23.953Z,1021.28
2018-09-16T07:53:24.046Z,1021.31
2018-09-16T07:54:23.971Z,1021.32
2018-09-16T07:55:23.972Z,1021.31
2018-09-16T07:56:23.979Z,1021.31
2018-09-16T07:57:23.987Z,1021.30
2018-09-16T07:58:23.967Z,1021.33
2018-09-16T07:59:24.118Z,1021.35
2018-09-16T08:00:24.033Z,1021.36
2018-09-16T08:01:24.033Z,1021.34
2018-09-16T08:02:24.011Z,1021.31
2018-09-16T08:03:24.041Z,1021.29
2018-09-16T08:04:24.055Z,1021.32
2018-09-16T08:05:24.111Z,1021.30
2018-09-16T08:06:24.272Z,1021.34
2018-09-16T08:07:24.061Z,1021.35
2018-09-16T08:08:24.064Z,1021.39
2018-09-16T08:09:24.091Z,1021.38
2018-09-16T08:10:24.102Z,1021.39
2018-09-16T08:11:24.156Z,1021.38
2018-09-16T08:12:24.125Z,1021.40
2018-09-16T08:13:24.111Z,1021.37
2018-09-16T08:14:24.165Z,1021.40
2018-09-16T08:15:24.164Z,1021.39
2018-09-16T08:16:24.241Z,1021.31
2018-09-16T08:17:24.186Z,1021.34
2018-09-16T08:18:24.207Z,1021.35
2018-09-16T08:19:24.391Z,1021.29
2018-09-16T08:20:24.224Z,1021.32
2018-09-16T08:21:24.314Z,1021.34
2018-09-16T08:22:24.279Z,1021.37
2018-09-16T08:23:24.277Z,1021.35
2018-09-16T08:24:24.245Z,1021.32
2018-09-16T08:25:24.243Z,1021.35
2018-09-16T08:26:24.308Z,1021.35
2018-09-16T08:27:24.288Z,1021.33
2018-09-16T08:28:24.440Z,1021.33
2018-09-16T08:29:24.319Z,1021.31
2018-09-16T08:30:24.326Z,1021.32
2018-09-16T08:31:24.325Z,1021.31
2018-09-16T08:32:24.603Z,1021.31
2018-09-16T08:33:24.401Z,1021.32
2018-09-16T08:34:24.353Z,1021.32
2018-09-16T08:35:24.343Z,1021.31
2018-09-16T08:36:25.120Z,1021.30
2018-09-16T08:37:24.494Z,1021.31
2018-09-16T08:38:24.397Z,1021.31
2018-09-16T08:39:24.421Z,1021.31
2018-09-16T08:40:24.443Z,1021.35
2018-09-16T08:41:24.438Z,1021.29
2018-09-16T08:42:24.514Z,1021.28
2018-09-16T08:43:24.440Z,1021.24
2018-09-16T08:44:24.489Z,1021.21
2018-09-16T08:45:24.465Z,1021.22
2018-09-16T08:46:24.475Z,1021.22
2018-09-16T08:47:24.485Z,1021.19
2018-09-16T08:48:24.508Z,1021.20
2018-09-16T08:49:24.562Z,1021.14
2018-09-16T08:50:24.506Z,1021.14
2018-09-16T08:51:24.558Z,1021.14
2018-09-16T08:52:24.542Z,1021.14
2018-09-16T08:53:24.554Z,1021.17
2018-09-16T08:54:24.571Z,1021.12
2018-09-16T08:55:24.683Z,1021.13
2018-09-16T08:56:24.641Z,1021.12
2018-09-16T08:57:24.611Z,1021.13
2018-09-16T08:58:24.733Z,1021.14
2018-09-16T08:59:24.614Z,1021.13
2018-09-16T09:00:24.661Z,1021.15
2018-09-16T09:01:24.758Z,1021.13
2018-09-16T09:02:24.644Z,1021.06
2018-09-16T09:03:24.652Z,1021.08
2018-09-16T09:04:24.682Z,1021.06
2018-09-16T09:05:24.695Z,1021.07
2018-09-16T09:06:24.759Z,1021.09
2018-09-16T09:07:24.682Z,1021.07
2018-09-16T09:08:24.765Z,1021.05
2018-09-16T09:09:24.766Z,1021.02
2018-09-16T09:10:24.728Z,1021.01
2018-09-16T09:11:24.733Z,1021.00
2018-09-16T09:12:24.755Z,1021.02
2018-09-16T09:13:24.810Z,1021.01
2018-09-16T09:14:24.866Z,1021.04
2018-09-16T09:15:24.820Z,1021.00
2018-09-16T09:16:24.790Z,1020.97
2018-09-16T09:17:24.885Z,1020.96
2018-09-16T09:18:24.796Z,1020.95
2018-09-16T09:19:24.834Z,1020.92
2018-09-16T09:20:24.848Z,1020.93
2018-09-16T09:21:24.848Z,1020.93
2018-09-16T09:22:24.886Z,1020.90
2018-09-16T09:23:24.955Z,1020.90
2018-09-16T09:24:24.892Z,1020.85
2018-09-16T09:25:24.902Z,1020.87
2018-09-16T09:26:25.349Z,1020.89
2018-09-16T09:27:24.911Z,1020.85
2018-09-16T09:28:24.919Z,1020.88
2018-09-16T09:29:24.991Z,1020.83
2018-09-16T09:30:24.945Z,1020.82
2018-09-16T09:31:24.969Z,1020.85
2018-09-16T09:32:25.002Z,1020.83
2018-09-16T09:33:24.983Z,1020.80
2018-09-16T09:34:25.007Z,1020.82
2018-09-16T09:35:25.061Z,1020.82
2018-09-16T09:36:25.030Z,1020.81
2018-09-16T09:37:25.025Z,1020.82
2018-09-16T09:38:25.037Z,1020.79
2018-09-16T09:39:25.093Z,1020.73
2018-09-16T09:40:25.095Z,1020.72
2018-09-16T09:41:25.051Z,1020.78
2018-09-16T09:42:25.101Z,1020.75
2018-09-16T09:43:25.105Z,1020.75
2018-09-16T09:44:25.108Z,1020.71
2018-09-16T09:45:25.119Z,1020.68
2018-09-16T09:46:25.157Z,1020.68
2018-09-16T09:47:25.166Z,1020.67
2018-09-16T09:48:25.143Z,1020.65
2018-09-16T09:49:25.164Z,1020.66
2018-09-16T09:50:25.164Z,1020.64
2018-09-16T09:51:25.221Z,1020.63
2018-09-16T09:52:25.189Z,1020.63
2018-09-16T09:53:25.423Z,1020.62
2018-09-16T09:54:25.245Z,1020.60
2018-09-16T09:55:25.360Z,1020.65
2018-09-16T09:56:25.246Z,1020.64
2018-09-16T09:57:25.271Z,1020.62
2018-09-16T09:58:25.266Z,1020.62
2018-09-16T09:59:25.411Z,1020.62
2018-09-16T10:00:25.281Z,1020.59
2018-09-16T10:01:25.612Z,1020.57
2018-09-16T10:02:25.296Z,1020.59
2018-09-16T10:03:25.318Z,1020.56
2018-09-16T10:04:25.406Z,1020.56
2018-09-16T10:05:25.327Z,1020.54
2018-09-16T10:06:25.724Z,1020.53
2018-09-16T10:07:25.360Z,1020.49
2018-09-16T10:08:25.425Z,1020.46
2018-09-16T10:09:25.395Z,1020.48
2018-09-16T10:10:25.400Z,1020.50
2018-09-16T10:11:25.445Z,1020.50
2018-09-16T10:12:25.576Z,1020.52
2018-09-16T10:13:25.422Z,1020.47
2018-09-16T10:14:25.472Z,1020.51
2018-09-16T10:15:25.444Z,1020.51
2018-09-16T10:16:25.472Z,1020.52
2018-09-16T10:17:25.490Z,1020.49
2018-09-16T10:18:25.516Z,1020.49
2018-09-16T10:19:25.520Z,1020.47
2018-09-16T10:20:25.503Z,1020.44
2018-09-16T10:21:25.501Z,1020.44
2018-09-16T10:22:25.588Z,1020.46
2018-09-16T10:23:25.586Z,1020.41
2018-09-16T10:24:25.632Z,1020.41
2018-09-16T10:25:25.554Z,1020.40
2018-09-16T10:26:25.573Z,1020.35
2018-09-16T10:27:25.606Z,1020.35
2018-09-16T10:28:25.612Z,1020.33
2018-09-16T10:29:25.659Z,1020.29
2018-09-16T10:30:25.614Z,1020.27
2018-09-16T10:31:25.640Z,1020.28
2018-09-16T10:32:25.634Z,1020.27
2018-09-16T10:33:25.692Z,1020.30
2018-09-16T10:34:25.701Z,1020.30
2018-09-16T10:35:25.733Z,1020.27
2018-09-16T10:36:25.678Z,1020.31
2018-09-16T10:37:25.727Z,1020.30
2018-09-16T10:38:26.693Z,1020.23
2018-09-16T10:39:25.747Z,1020.25
2018-09-16T10:40:25.766Z,1020.22
2018-09-16T10:41:25.900Z,1020.22
2018-09-16T10:42:25.779Z,1020.18
2018-09-16T10:43:25.773Z,1020.19
2018-09-16T10:44:25.776Z,1020.13
2018-09-16T10:45:25.792Z,1020.15
2018-09-16T10:46:25.850Z,1020.13
2018-09-16T10:47:25.836Z,1020.12
2018-09-16T10:48:25.991Z,1020.13
2018-09-16T10:49:25.853Z,1020.14
2018-09-16T10:50:25.911Z,1020.11
2018-09-16T10:51:25.863Z,1020.10
2018-09-16T10:52:25.878Z,1020.10
2018-09-16T10:53:25.941Z,1020.12
2018-09-16T10:54:25.912Z,1020.09
2018-09-16T10:55:25.900Z,1020.08
2018-09-16T10:56:25.958Z,1020.08
2018-09-16T10:57:26.108Z,1020.09
2018-09-16T10:58:26.026Z,1020.07
2018-09-16T10:59:25.984Z,1020.09
2018-09-16T11:00:26.206Z,1020.10
2018-09-16T11:01:25.990Z,1020.07
2018-09-16T11:02:26.059Z,1020.07
2018-09-16T11:03:26.038Z,1020.07
2018-09-16T11:04:26.064Z,1020.09
2018-09-16T11:05:26.063Z,1020.11
2018-09-16T11:06:26.085Z,1020.08
2018-09-16T11:07:26.066Z,1020.06
2018-09-16T11:08:26.156Z,1020.11
2018-09-16T11:09:26.121Z,1020.13
2018-09-16T11:10:26.093Z,1020.10
2018-09-16T11:11:26.210Z,1020.09
2018-09-16T11:12:26.127Z,1020.09
2018-09-16T11:13:26.257Z,1020.04
2018-09-16T11:14:26.164Z,1020.08
2018-09-16T11:15:26.193Z,1020.09
2018-09-16T11:16:26.183Z,1020.08
2018-09-16T11:17:26.194Z,1020.07
2018-09-16T11:18:26.218Z,1020.05
2018-09-16T11:19:26.228Z,1020.05
2018-09-16T11:20:26.288Z,1020.06
2018-09-16T11:21:26.328Z,1020.04
2018-09-16T11:22:26.291Z,1020.05
2018-09-16T11:23:26.275Z,1020.02
2018-09-16T11:24:26.343Z,1020.02
2018-09-16T11:25:26.319Z,1020.04
2018-09-16T11:26:26.356Z,1020.03
2018-09-16T11:27:27.017Z,1020.05
2018-09-16T11:28:26.371Z,1020.02
2018-09-16T11:29:26.370Z,1020.05
2018-09-16T11:30:26.356Z,1020.00
2018-09-16T11:31:26.423Z,1019.99
2018-09-16T11:32:26.370Z,1019.94
2018-09-16T11:33:26.413Z,1019.95
2018-09-16T11:34:26.436Z,1019.86
2018-09-16T11:35:26.539Z,1019.89
2018-09-16T11:36:26.426Z,1019.88
2018-09-16T11:37:26.437Z,1019.81
2018-09-16T11:38:26.472Z,1019.82
2018-09-16T11:39:26.538Z,1019.81
2018-09-16T11:40:26.485Z,1019.81
2018-09-16T11:41:26.543Z,1019.83
2018-09-16T11:42:26.519Z,1019.81
2018-09-16T11:43:26.626Z,1019.81
2018-09-16T11:44:26.544Z,1019.81
2018-09-16T11:45:26.537Z,1019.82
2018-09-16T11:46:26.604Z,1019.79
2018-09-16T11:47:26.640Z,1019.80
2018-09-16T11:48:26.746Z,1019.76
2018-09-16T11:49:26.622Z,1019.78
2018-09-16T11:50:26.658Z,1019.76
2018-09-16T11:51:26.815Z,1019.72
2018-09-16T11:52:26.657Z,1019.76
2018-09-16T11:53:26.676Z,1019.72
2018-09-16T11:54:26.666Z,1019.69
2018-09-16T11:55:26.685Z,1019.67
2018-09-16T11:56:26.696Z,1019.65
2018-09-16T11:57:26.705Z,1019.65
2018-09-16T11:58:26.758Z,1019.65
2018-09-16T11:59:27.197Z,1019.66
2018-09-16T12:00:26.804Z,1019.66
2018-09-16T12:01:26.813Z,1019.60
2018-09-16T12:02:26.766Z,1019.60
2018-09-16T12:03:26.784Z,1019.58
2018-09-16T12:04:26.825Z,1019.56
2018-09-16T12:05:26.890Z,1019.57